Time,TemperatureF,DewpointF,PressureIn,WindDirection,WindDirectionDegrees,WindSpeedMPH,WindSpeedGustMPH,Humidity,HourlyPrecipIn,Conditions,Clouds,dailyrainin,SoftwareType,DateUTC
2011-11-19 00:03:00,46.8,21.7,29.64,WNW,292,0.0,0.0,37,0.00,,,0.08,open2300-1.11,2011-11-19 07:03:00,
2011-11-19 00:18:00,45.5,21.2,29.65,WNW,292,0.0,0.0,38,0.00,,,0.08,open2300-1.11,2011-11-19 07:18:00,
2011-11-19 00:33:00,45.1,21.6,29.64,WSW,247,1.1,1.1,39,0.00,,,0.08,open2300-1.11,2011-11-19 07:33:00,
2011-11-19 00:48:00,46.0,21.7,29.65,SW,225,0.0,7.2,38,0.00,,,0.08,open2300-1.11,2011-11-19 07:48:00,
2011-11-19 01:03:00,46.2,21.9,29.64,WNW,292,1.8,6.3,38,0.00,,,0.08,open2300-1.11,2011-11-19 08:03:00,
2011-11-19 01:18:00,46.6,21.5,29.64,WSW,247,0.0,6.7,37,0.00,,,0.08,open2300-1.11,2011-11-19 08:18:00,
2011-11-19 01:34:00,46.8,21.7,29.64,NW,315,2.0,5.1,37,0.00,,,0.08,open2300-1.11,2011-11-19 08:34:00,
2011-11-19 01:48:00,46.6,21.5,29.66,North,0,3.1,5.4,37,0.00,,,0.08,open2300-1.11,2011-11-19 08:48:00,
2011-11-19 02:03:00,46.2,21.2,29.66,West,270,0.0,3.1,37,0.00,,,0.08,open2300-1.11,2011-11-19 09:03:00,
2011-11-19 02:18:00,45.3,21.1,29.67,NNW,337,0.0,0.0,38,0.00,,,0.08,open2300-1.11,2011-11-19 09:18:00,
2011-11-19 02:33:00,44.4,20.2,29.68,North,0,0.0,0.0,38,0.00,,,0.08,open2300-1.11,2011-11-19 09:33:00,
2011-11-19 02:48:00,43.5,20.8,29.68,North,0,0.0,0.0,40,0.00,,,0.08,open2300-1.11,2011-11-19 09:48:00,
2011-11-19 03:04:00,42.4,20.3,29.68,North,0,0.0,0.0,41,0.00,,,0.08,open2300-1.11,2011-11-19 10:04:00,
2011-11-19 03:18:00,41.0,20.1,29.68,NNE,22,0.0,0.0,43,0.00,,,0.08,open2300-1.11,2011-11-19 10:18:00,
2011-11-19 03:33:00,39.9,19.6,29.68,SW,225,0.0,0.0,44,0.00,,,0.08,open2300-1.11,2011-11-19 10:33:00,
2011-11-19 03:49:00,39.0,19.9,29.68,NNE,22,2.7,2.7,46,0.00,,,0.08,open2300-1.11,2011-11-19 10:49:00,
2011-11-19 04:03:00,38.8,20.2,29.68,NNE,22,0.0,2.7,47,0.00,,,0.08,open2300-1.11,2011-11-19 11:03:00,
2011-11-19 04:18:00,37.9,19.9,29.67,West,270,0.0,2.9,48,0.00,,,0.08,open2300-1.11,2011-11-19 11:18:00,
2011-11-19 04:33:00,37.6,20.1,29.67,WNW,292,0.0,0.0,49,0.00,,,0.08,open2300-1.11,2011-11-19 11:33:00,
2011-11-19 04:48:00,37.2,20.3,29.68,South,180,0.0,0.0,50,0.00,,,0.08,open2300-1.11,2011-11-19 11:48:00,
2011-11-19 05:03:00,36.3,19.9,29.68,South,180,0.0,0.0,51,0.00,,,0.08,open2300-1.11,2011-11-19 12:03:00,
2011-11-19 05:18:00,35.4,19.5,29.68,SE,135,0.0,0.0,52,0.00,,,0.08,open2300-1.11,2011-11-19 12:18:00,
2011-11-19 05:33:00,34.9,19.9,29.68,SE,135,0.0,0.0,54,0.00,,,0.08,open2300-1.11,2011-11-19 12:33:00,
2011-11-19 05:48:00,34.5,19.9,29.69,SSE,157,0.0,0.0,55,0.00,,,0.08,open2300-1.11,2011-11-19 12:48:00,
2011-11-19 06:03:00,34.0,19.4,29.70,South,180,0.0,0.0,55,0.00,,,0.08,open2300-1.11,2011-11-19 13:03:00,
2011-11-19 06:18:00,33.1,19.4,29.70,South,180,0.0,0.0,57,0.00,,,0.08,open2300-1.11,2011-11-19 13:18:00,
2011-11-19 06:33:00,32.9,19.7,29.71,South,180,0.0,0.0,58,0.00,,,0.08,open2300-1.11,2011-11-19 13:33:00,
2011-11-19 06:49:00,34.5,21.2,29.71,East,90,0.0,5.6,58,0.00,,,0.08,open2300-1.11,2011-11-19 13:49:00,
2011-11-19 07:03:00,35.8,21.6,29.71,NE,45,0.0,5.1,56,0.00,,,0.08,open2300-1.11,2011-11-19 14:03:00,
2011-11-19 07:18:00,36.3,22.1,29.72,SSE,157,0.0,3.6,56,0.00,,,0.08,open2300-1.11,2011-11-19 14:18:00,
2011-11-19 07:33:00,37.9,23.1,29.73,SE,135,0.0,6.9,55,0.00,,,0.08,open2300-1.11,2011-11-19 14:33:00,
2011-11-19 07:48:00,39.2,23.8,29.73,ESE,112,0.0,2.0,54,0.00,,,0.08,open2300-1.11,2011-11-19 14:48:00,
2011-11-19 08:03:00,40.8,24.4,29.73,East,90,5.1,6.5,52,0.00,,,0.08,open2300-1.11,2011-11-19 15:03:00,
2011-11-19 08:18:00,42.3,25.0,29.73,SE,135,2.9,6.3,50,0.00,,,0.08,open2300-1.11,2011-11-19 15:18:00,
2011-11-19 08:33:00,44.6,26.6,29.74,NNE,22,0.0,6.0,49,0.00,,,0.08,open2300-1.11,2011-11-19 15:33:00,
2011-11-19 08:48:00,47.5,27.0,29.74,East,90,0.0,0.9,45,0.00,,,0.08,open2300-1.11,2011-11-19 15:48:00,
2011-11-19 09:03:00,50.4,28.6,29.74,NE,45,6.9,6.9,43,0.00,,,0.08,open2300-1.11,2011-11-19 16:03:00,
2011-11-19 09:18:00,53.2,28.8,29.75,SSE,157,0.0,6.9,39,0.00,,,0.08,open2300-1.11,2011-11-19 16:18:00,
2011-11-19 09:33:00,55.4,26.5,29.75,SW,225,4.9,5.6,33,0.00,,,0.08,open2300-1.11,2011-11-19 16:33:00,
2011-11-19 09:48:00,55.4,25.1,29.75,SW,225,4.2,6.5,31,0.00,,,0.08,open2300-1.11,2011-11-19 16:48:00,
2011-11-19 10:03:00,56.5,26.1,29.76,South,180,0.0,5.4,31,0.00,,,0.08,open2300-1.11,2011-11-19 17:03:00,
2011-11-19 10:18:00,55.9,24.9,29.76,WSW,247,6.3,6.5,30,0.00,,,0.08,open2300-1.11,2011-11-19 17:18:00,
2011-11-19 10:33:00,57.0,25.9,29.76,South,180,3.6,9.4,30,0.00,,,0.08,open2300-1.11,2011-11-19 17:33:00,
2011-11-19 10:48:00,57.9,25.7,29.76,SW,225,5.4,7.2,29,0.00,,,0.08,open2300-1.11,2011-11-19 17:48:00,
2011-11-19 11:03:00,58.3,25.1,29.76,South,180,6.3,9.8,28,0.00,,,0.08,open2300-1.11,2011-11-19 18:03:00,
2011-11-19 11:18:00,58.5,24.3,29.76,South,180,5.8,6.3,27,0.00,,,0.08,open2300-1.11,2011-11-19 18:18:00,
2011-11-19 11:33:00,59.2,25.9,29.76,SSW,202,10.5,10.5,28,0.00,,,0.08,open2300-1.11,2011-11-19 18:33:00,
2011-11-19 11:48:00,58.6,25.4,29.75,West,270,1.6,13.4,28,0.00,,,0.08,open2300-1.11,2011-11-19 18:48:00,
2011-11-19 12:03:00,59.9,25.5,29.75,WSW,247,0.0,8.7,27,0.00,,,0.08,open2300-1.11,2011-11-19 19:03:00,
2011-11-19 12:18:00,59.9,25.5,29.75,SW,225,4.7,11.0,27,0.00,,,0.08,open2300-1.11,2011-11-19 19:18:00,
2011-11-19 12:33:00,60.6,26.1,29.74,SW,225,3.4,8.9,27,0.00,,,0.08,open2300-1.11,2011-11-19 19:33:00,
2011-11-19 12:48:00,61.3,25.8,29.74,SW,225,5.8,8.7,26,0.00,,,0.08,open2300-1.11,2011-11-19 19:48:00,
2011-11-19 13:03:00,61.9,25.3,29.73,WNW,292,3.1,7.2,25,0.00,,,0.08,open2300-1.11,2011-11-19 20:03:00,
2011-11-19 13:18:00,63.1,25.4,29.74,West,270,9.6,9.8,24,0.00,,,0.08,open2300-1.11,2011-11-19 20:18:00,
2011-11-19 13:33:00,64.0,26.1,29.74,WSW,247,5.1,9.6,24,0.00,,,0.08,open2300-1.11,2011-11-19 20:33:00,
2011-11-19 13:48:00,64.6,25.6,29.73,WNW,292,11.0,11.0,23,0.00,,,0.08,open2300-1.11,2011-11-19 20:48:00,
2011-11-19 14:03:00,65.8,26.6,29.74,West,270,0.0,11.0,23,0.00,,,0.00,open2300-1.11,2011-11-19 21:03:00,
2011-11-19 14:18:00,67.8,27.3,29.74,West,270,0.0,6.7,22,0.00,,,0.00,open2300-1.11,2011-11-19 21:18:00,
2011-11-19 14:33:00,67.8,26.4,29.73,West,270,0.0,8.7,21,0.00,,,0.00,open2300-1.11,2011-11-19 21:33:00,
2011-11-19 14:48:00,68.0,25.5,29.74,WSW,247,9.4,11.9,20,0.00,,,0.00,open2300-1.11,2011-11-19 21:48:00,
2011-11-19 15:03:00,64.9,24.9,29.74,WNW,292,0.7,9.4,22,0.00,,,0.00,open2300-1.11,2011-11-19 22:03:00,
2011-11-19 15:18:00,65.8,25.6,29.73,WNW,292,0.0,7.8,22,0.00,,,0.00,open2300-1.11,2011-11-19 22:18:00,
2011-11-19 15:33:00,64.2,25.3,29.74,South,180,0.0,2.9,23,0.00,,,0.00,open2300-1.11,2011-11-19 22:33:00,
2011-11-19 15:48:00,64.2,25.3,29.74,SSE,157,0.0,0.0,23,0.00,,,0.00,open2300-1.11,2011-11-19 22:48:00,
2011-11-19 16:03:00,63.0,24.2,29.75,SSW,202,0.0,0.0,23,0.00,,,0.00,open2300-1.11,2011-11-19 23:03:00,
2011-11-19 16:18:00,59.9,23.6,29.75,SSW,202,0.0,1.1,25,0.00,,,0.00,open2300-1.11,2011-11-19 23:18:00,
2011-11-19 16:33:00,59.2,23.9,29.75,SE,135,1.8,2.9,26,0.00,,,0.00,open2300-1.11,2011-11-19 23:33:00,
2011-11-19 16:48:00,58.8,23.6,29.74,SW,225,0.0,2.0,26,0.00,,,0.00,open2300-1.11,2011-11-19 23:48:00,
2011-11-19 17:03:00,57.6,23.5,29.75,SW,225,0.0,0.0,27,0.00,,,0.00,open2300-1.11,2011-11-20 00:03:00,
2011-11-19 17:20:00,55.4,22.6,29.75,ESE,112,0.0,0.0,28,0.00,,,0.00,open2300-1.11,2011-11-20 00:20:00,
2011-11-19 17:33:00,53.8,22.2,29.75,ESE,112,0.0,3.4,29,0.00,,,0.00,open2300-1.11,2011-11-20 00:33:00,
2011-11-19 17:48:00,52.0,22.2,29.75,ESE,112,0.0,0.0,31,0.00,,,0.00,open2300-1.11,2011-11-20 00:48:00,
2011-11-19 18:03:00,50.5,21.6,29.76,East,90,4.2,4.2,32,0.00,,,0.00,open2300-1.11,2011-11-20 01:03:00,
2011-11-19 18:18:00,49.6,21.5,29.76,ESE,112,3.1,7.8,33,0.00,,,0.00,open2300-1.11,2011-11-20 01:18:00,
2011-11-19 18:33:00,49.8,21.6,29.76,East,90,5.4,6.3,33,0.00,,,0.00,open2300-1.11,2011-11-20 01:33:00,
2011-11-19 18:50:00,49.8,21.6,29.76,SSE,157,0.2,6.0,33,0.00,,,0.00,open2300-1.11,2011-11-20 01:50:00,
2011-11-19 19:03:00,50.7,22.5,29.77,SE,135,0.0,3.8,33,0.00,,,0.00,open2300-1.11,2011-11-20 02:03:00,
2011-11-19 19:18:00,50.7,22.5,29.77,South,180,0.0,1.6,33,0.00,,,0.00,open2300-1.11,2011-11-20 02:18:00,
2011-11-19 19:35:00,52.0,22.2,29.78,South,180,6.9,11.2,31,0.00,,,0.00,open2300-1.11,2011-11-20 02:35:00,
2011-11-19 19:48:00,52.3,22.5,29.78,South,180,0.0,6.9,31,0.00,,,0.00,open2300-1.11,2011-11-20 02:48:00,
2011-11-19 20:03:00,52.2,21.7,29.78,SSW,202,4.2,4.2,30,0.00,,,0.00,open2300-1.11,2011-11-20 03:03:00,
2011-11-19 20:18:00,52.3,21.9,29.79,SSE,157,8.1,8.1,30,0.00,,,0.00,open2300-1.11,2011-11-20 03:18:00,
2011-11-19 20:33:00,52.2,21.7,29.79,SSW,202,0.0,8.1,30,0.00,,,0.00,open2300-1.11,2011-11-20 03:33:00,
2011-11-19 20:48:00,51.6,21.2,29.80,SW,225,0.0,5.6,30,0.00,,,0.00,open2300-1.11,2011-11-20 03:48:00,
2011-11-19 21:03:00,51.6,21.9,29.81,South,180,0.0,5.6,31,0.00,,,0.00,open2300-1.11,2011-11-20 04:03:00,
2011-11-19 21:18:00,50.7,21.1,29.81,South,180,0.0,0.0,31,0.00,,,0.00,open2300-1.11,2011-11-20 04:18:00,
2011-11-19 21:33:00,48.9,20.9,29.81,SW,225,0.0,0.0,33,0.00,,,0.00,open2300-1.11,2011-11-20 04:33:00,
2011-11-19 21:48:00,49.3,21.9,29.81,ESE,112,0.0,6.7,34,0.00,,,0.00,open2300-1.11,2011-11-20 04:48:00,
2011-11-19 22:03:00,49.3,21.9,29.81,SW,225,0.0,4.5,34,0.00,,,0.00,open2300-1.11,2011-11-20 05:03:00,
2011-11-19 22:18:00,48.2,21.6,29.81,WSW,247,3.1,3.8,35,0.00,,,0.00,open2300-1.11,2011-11-20 05:18:00,
2011-11-19 22:33:00,49.3,22.6,29.82,SSW,202,0.0,7.4,35,0.00,,,0.00,open2300-1.11,2011-11-20 05:33:00,
2011-11-19 22:48:00,49.6,22.9,29.82,WSW,247,0.7,10.5,35,0.00,,,0.00,open2300-1.11,2011-11-20 05:48:00,
2011-11-19 23:03:00,49.8,23.0,29.82,WSW,247,0.0,8.1,35,0.00,,,0.00,open2300-1.11,2011-11-20 06:03:00,
2011-11-19 23:18:00,49.6,23.5,29.82,West,270,0.0,7.8,36,0.00,,,0.00,open2300-1.11,2011-11-20 06:18:00,
2011-11-19 23:33:00,48.9,22.9,29.82,WSW,247,1.1,3.8,36,0.00,,,0.00,open2300-1.11,2011-11-20 06:33:00,
2011-11-19 23:48:00,48.4,23.1,29.83,WSW,247,0.0,3.4,37,0.00,,,0.00,open2300-1.11,2011-11-20 06:48:00,